Beef Island, British Virgin Islands

6:14 PM AST on August 27, 2015 (GMT -0400)
Sopers Hole | | Change Station
CLOSE
Current Station
Personal Weather Station
Location: Tortola, TORTOLA
Elevation: 36 ft
Nearby Weather Stations

Elev 36 ft 18.38 °N, 64.70 °W | Updated 6 seconds ago

Overcast
Overcast
81.9 °F
Feels Like 89 °F
N
5.4
Wind Variable Wind from SSE
Gusts 20.0 mph

Today
High -- | Low -- °F
--% Chance of Precip.
Yesterday
High -- | Low -- °F
Precip. -- in
6:02 AM 6:36 PM
Waxing Gibbous, 95% visible
Pressure 29.84 in
Visibility 4.0 miles
Clouds Scattered Clouds 2000 ft
Mostly Cloudy 3000 ft
Overcast 7000 ft
Heat Index 89 °F
Dew Point 75 °F
Humidity 81%
Rainfall 0.27 in
Snow Depth Not available.
UV 0 out of 12
Pollen Not available.
Air Quality Not available.
Flu Activity Not available.
METAR TIST 272153Z 10019G23KT 4SM -RA BR SCT020 BKN030 OVC070 27/26 A2984 RMK AO2 PK WND 09030/2120 RAB05E24B49 SLP105 P0002 T02720256
Pressure 29.84 in
Visibility 4.0 miles
Clouds Scattered Clouds 2000 ft
Mostly Cloudy 3000 ft
Overcast 7000 ft
Heat Index 89 °F
Dew Point 75 °F
Humidity 81%
Rainfall 0.27 in
Snow Depth Not available.
UV 0 out of 12
Pollen Not available.
Air Quality Not available.
Flu Activity Not available.
METAR TIST 272153Z 10019G23KT 4SM -RA BR SCT020 BKN030 OVC070 27/26 A2984 RMK AO2 PK WND 09030/2120 RAB05E24B49 SLP105 P0002 T02720256

10-Day Weather Forecast

×

Almanac

Astronomy

Aug. 27, 2015 Rise Set
Actual Time
Civil Twilight
Nautical Twilight
Astronomical Twilight
Moon
Length of Visible Light
Length of Day
Tomorrow will be .
, % of the Moon is Illuminated

Today's Extremes

Country Highs Country Lows

Community

WunderPhotos

Upload Photos

1,850,250 photos uploaded!

WunderBlogs® & News

Nearby

Air Quality

  Air Quality AQ Index Pollutant
Not available.

Snow Depth

Station Depth Elevation

Earthquake Activity

City Distance Mag. Time & Date
Minimum magnitude displayed is 2.5.

Coastal Water Temperatures

Place Temperature

Stations

Nearby Weather Stations

Station Location Temp. Windchill Dew Point Humidity Wind Precip. Elev Updated Type